Terminal Aerodrome Forecast
Issued by NWS Wichita, KS

Home | Current Version | Previous Version | Graphics & Text | Print | Product List | Glossary On
Versions: 1 2 3 4 5 6 7 8 9 10 11 12 13 14 15 16 17 18 19 20 21 22 23 24
122
FTUS43 KICT 150103 AAA
TAFICT
TAF AMD
KICT 150103Z 1501/1524 15012KT 5SM BR OVC007
     FM150400 17011KT 2SM -DZ BR OVC003
     FM150800 28007KT 3SM -DZ BR VCTS OVC008CB
     FM151000 33010KT 5SM BR OVC008
     FM151200 36015G23KT P6SM FEW040=

USA.gov is the U.S. government's official web portal to all federal, state and local government web resources and services.